^^
Grace C. Lehan Memorial Weather Station Historical Data
Daily Summary for October 21, 2021 Units:  Both    English   Metric
Daily Weekly Monthly Yearly
  High: Low: Average:
Temperature: 76.3 °F /  24.6 °C 54.4 °F /  12.4 °C 65.4 °F /  18.6 °C
Dew Point: 58.6 °F /  14.8 °C 51.7 °F /  10.9 °C 54.5 °F /  12.5 °C
Humidity: 92% 47.2% 70%
Wind Speed: 2.9mph /  4.7km/h - 0.3mph /  0.5km/h
Wind Gust: 12mph /  19.3km/h - -
Wind- - SW
Pressure: 29.99 in /  1015.5 hPa 29.84 in /  1010.4 hPa -
Precipitation: 0.00 in /  0 mm    
 
 
Tabular Data for October 21, 2021
Time Temperature Dew Point Pressure Wind Wind Speed Wind Gust Humidity Rainfall Rate (Hourly) solar
00:09 62.2 °F /  16.8 °C 53.8 °F /  12.1 °C 29.96in /  1014.4hPa Calm     74% 0.00in /  0mm 0 W/m2
00:14 62.2 °F /  16.8 °C 53.5 °F /  11.9 °C 29.96in /  1014.4hPa Calm     73.2% 0.00in /  0mm 0 W/m2
00:19 62.1 °F /  16.7 °C 53.4 °F /  11.9 °C 29.96in /  1014.4hPa Calm     72.9% 0.00in /  0mm 0 W/m2
00:24 62.1 °F /  16.7 °C 53.1 °F /  11.7 °C 29.96in /  1014.4hPa Calm     72.3% 0.00in /  0mm 0 W/m2
00:29 62 °F /  16.7 °C 53 °F /  11.7 °C 29.96in /  1014.4hPa Calm     72.2% 0.00in /  0mm 0 W/m2
00:34 62 °F /  16.7 °C 52.9 °F /  11.6 °C 29.96in /  1014.4hPa Calm     72% 0.00in /  0mm 0 W/m2
00:39 61.9 °F /  16.6 °C 52.8 °F /  11.6 °C 29.96in /  1014.4hPa Calm     72% 0.00in /  0mm 0 W/m2
00:44 61.9 °F /  16.6 °C 53.3 °F /  11.8 °C 29.96in /  1014.4hPa Calm     73.5% 0.00in /  0mm 0 W/m2
00:49 61.8 °F /  16.6 °C 53.5 °F /  11.9 °C 29.96in /  1014.4hPa Calm     74% 0.00in /  0mm 0 W/m2
00:54 61.7 °F /  16.5 °C 53.2 °F /  11.8 °C 29.96in /  1014.4hPa Calm     73.6% 0.00in /  0mm 0 W/m2
00:59 61.7 °F /  16.5 °C 52.9 °F /  11.6 °C 29.96in /  1014.4hPa Calm     73% 0.00in /  0mm 0 W/m2
01:04 61.6 °F /  16.4 °C 52.9 °F /  11.6 °C 29.96in /  1014.4hPa Calm     73% 0.00in /  0mm 0 W/m2
01:09 61.5 °F /  16.4 °C 52.9 °F /  11.6 °C 29.96in /  1014.4hPa Calm     73.4% 0.00in /  0mm 0 W/m2
01:14 61.4 °F /  16.3 °C 53.1 °F /  11.7 °C 29.96in /  1014.4hPa Calm     74% 0.00in /  0mm 0 W/m2
01:19 61.3 °F /  16.3 °C 53 °F /  11.7 °C 29.96in /  1014.4hPa Calm     74% 0.00in /  0mm 0 W/m2
01:24 61.2 °F /  16.2 °C 52.9 °F /  11.6 °C 29.96in /  1014.4hPa Calm     74% 0.00in /  0mm 0 W/m2
01:29 61.1 °F /  16.2 °C 52.7 °F /  11.5 °C 29.96in /  1014.4hPa Calm     74% 0.00in /  0mm 0 W/m2
01:34 60.9 °F /  16.1 °C 52.9 °F /  11.6 °C 29.96in /  1014.4hPa Calm     74.9% 0.00in /  0mm 0 W/m2
01:39 60.8 °F /  16 °C 52.9 °F /  11.6 °C 29.95in /  1014.1hPa Calm     75.2% 0.00in /  0mm 0 W/m2
01:44 60.7 °F /  15.9 °C 52.7 °F /  11.5 °C 29.95in /  1014.1hPa Calm     75% 0.00in /  0mm 0 W/m2
01:49 60.6 °F /  15.9 °C 52.7 °F /  11.5 °C 29.95in /  1014.1hPa Calm     75.3% 0.00in /  0mm 0 W/m2
01:54 60.5 °F /  15.8 °C 52.9 °F /  11.6 °C 29.95in /  1014.1hPa Calm     76% 0.00in /  0mm 0 W/m2
01:59 60.4 °F /  15.8 °C 52.8 °F /  11.6 °C 29.95in /  1014.1hPa Calm     76% 0.00in /  0mm 0 W/m2
02:04 60.3 °F /  15.7 °C 52.8 °F /  11.6 °C 29.95in /  1014.1hPa Calm     76.3% 0.00in /  0mm 0 W/m2
02:09 60.3 °F /  15.7 °C 53.1 °F /  11.7 °C 29.95in /  1014.1hPa Calm     77% 0.00in /  0mm 0 W/m2
02:14 60.2 °F /  15.7 °C 52.7 °F /  11.5 °C 29.95in /  1014.1hPa Calm     76.1% 0.00in /  0mm 0 W/m2
02:19 60.2 °F /  15.7 °C 52.6 °F /  11.4 °C 29.95in /  1014.1hPa Calm     76% 0.00in /  0mm 0 W/m2
02:24 60.2 °F /  15.7 °C 53.1 °F /  11.7 °C 29.95in /  1014.1hPa Calm     77.5% 0.00in /  0mm 0 W/m2
02:29 60.2 °F /  15.7 °C 53.3 °F /  11.8 °C 29.95in /  1014.1hPa Calm     77.9% 0.00in /  0mm 0 W/m2
02:34 60.1 °F /  15.6 °C 52.9 °F /  11.6 °C 29.95in /  1014.1hPa Calm     77% 0.00in /  0mm 0 W/m2
02:39 60.1 °F /  15.6 °C 52.9 °F /  11.6 °C 29.96in /  1014.4hPa Calm     77% 0.00in /  0mm 0 W/m2
02:44 60.1 °F /  15.6 °C 52.9 °F /  11.6 °C 29.96in /  1014.4hPa Calm     77.2% 0.00in /  0mm 0 W/m2
02:49 60.1 °F /  15.6 °C 53.2 °F /  11.8 °C 29.96in /  1014.4hPa Calm     78% 0.00in /  0mm 0 W/m2
02:54 60 °F /  15.6 °C 53.1 °F /  11.7 °C 29.96in /  1014.4hPa Calm     78% 0.00in /  0mm 0 W/m2
02:59 59.9 °F /  15.5 °C 53.1 °F /  11.7 °C 29.96in /  1014.4hPa Calm     78% 0.00in /  0mm 0 W/m2
03:04 59.8 °F /  15.4 °C 52.9 °F /  11.6 °C 29.96in /  1014.4hPa Calm     78% 0.00in /  0mm 0 W/m2
03:09 59.7 °F /  15.4 °C 52.8 °F /  11.6 °C 29.96in /  1014.4hPa Calm     78% 0.00in /  0mm 0 W/m2
03:14 59.6 °F /  15.3 °C 52.7 °F /  11.5 °C 29.96in /  1014.4hPa Calm     78% 0.00in /  0mm 0 W/m2
03:19 59.4 °F /  15.2 °C 52.7 °F /  11.5 °C 29.96in /  1014.4hPa Calm     78.4% 0.00in /  0mm 0 W/m2
03:24 59.3 °F /  15.2 °C 52.8 °F /  11.6 °C 29.96in /  1014.4hPa Calm     79% 0.00in /  0mm 0 W/m2
03:29 59.2 °F /  15.1 °C 53.3 °F /  11.8 °C 29.96in /  1014.4hPa Calm     80.7% 0.00in /  0mm 0 W/m2
03:34 58.9 °F /  14.9 °C 53.4 °F /  11.9 °C 29.96in /  1014.4hPa Calm     81.7% 0.00in /  0mm 0 W/m2
03:39 58.6 °F /  14.8 °C 53.2 °F /  11.8 °C 29.96in /  1014.4hPa Calm     82.2% 0.00in /  0mm 0 W/m2
03:44 58.3 °F /  14.6 °C 53.2 °F /  11.8 °C 29.96in /  1014.4hPa Calm     82.9% 0.00in /  0mm 0 W/m2
03:49 58.1 °F /  14.5 °C 53 °F /  11.7 °C 29.96in /  1014.4hPa Calm     83.1% 0.00in /  0mm 0 W/m2
03:54 58 °F /  14.4 °C 53.2 °F /  11.8 °C 29.96in /  1014.4hPa Calm     84% 0.00in /  0mm 0 W/m2
03:59 57.9 °F /  14.4 °C 53.1 °F /  11.7 °C 29.96in /  1014.4hPa Calm     84% 0.00in /  0mm 0 W/m2
04:00 57.8 °F /  14.3 °C 53 °F /  11.7 °C 29.96in /  1014.4hPa Calm     84% 0.00in /  0mm 0 W/m2
04:09 57.7 °F /  14.3 °C 53.2 °F /  11.8 °C 29.96in /  1014.4hPa Calm     84.9% 0.00in /  0mm 0 W/m2
04:14 57.6 °F /  14.2 °C 52.9 °F /  11.6 °C 29.96in /  1014.4hPa Calm     84.3% 0.00in /  0mm 0 W/m2
04:19 57.5 °F /  14.2 °C 53 °F /  11.7 °C 29.96in /  1014.4hPa Calm     85% 0.00in /  0mm 0 W/m2
04:24 57.4 °F /  14.1 °C 52.9 °F /  11.6 °C 29.96in /  1014.4hPa Calm     85% 0.00in /  0mm 0 W/m2
04:29 57.2 °F /  14 °C 53 °F /  11.7 °C 29.96in /  1014.4hPa Calm     85.7% 0.00in /  0mm 0 W/m2
04:34 57.1 °F /  13.9 °C 52.9 °F /  11.6 °C 29.95in /  1014.1hPa Calm     86% 0.00in /  0mm 0 W/m2
04:39 56.9 °F /  13.8 °C 52.8 °F /  11.6 °C 29.96in /  1014.4hPa Calm     86% 0.00in /  0mm 0 W/m2
04:44 56.8 °F /  13.8 °C 52.7 °F /  11.5 °C 29.95in /  1014.1hPa Calm     86% 0.00in /  0mm 0 W/m2
04:49 56.7 °F /  13.7 °C 52.5 °F /  11.4 °C 29.95in /  1014.1hPa Calm     86% 0.00in /  0mm 0 W/m2
04:54 56.5 °F /  13.6 °C 52.4 °F /  11.3 °C 29.95in /  1014.1hPa Calm     86% 0.00in /  0mm 0 W/m2
04:59 56.4 °F /  13.6 °C 52.4 °F /  11.3 °C 29.96in /  1014.4hPa Calm     86.6% 0.00in /  0mm 0 W/m2
05:04 56.3 °F /  13.5 °C 52.5 °F /  11.4 °C 29.96in /  1014.4hPa Calm     87% 0.00in /  0mm 0 W/m2
05:09 56.1 °F /  13.4 °C 52.5 °F /  11.4 °C 29.96in /  1014.4hPa Calm     87.5% 0.00in /  0mm 0 W/m2
05:14 56 °F /  13.3 °C 52.5 °F /  11.4 °C 29.96in /  1014.4hPa Calm     88% 0.00in /  0mm 0 W/m2
05:19 55.9 °F /  13.3 °C 52.4 °F /  11.3 °C 29.96in /  1014.4hPa Calm     88% 0.00in /  0mm 0 W/m2
05:24 55.7 °F /  13.2 °C 52.3 °F /  11.3 °C 29.96in /  1014.4hPa Calm     88% 0.00in /  0mm 0 W/m2
05:29 55.6 °F /  13.1 °C 52.2 °F /  11.2 °C 29.96in /  1014.4hPa Calm     88.2% 0.00in /  0mm 0 W/m2
05:34 55.5 °F /  13.1 °C 52.3 °F /  11.3 °C 29.96in /  1014.4hPa Calm     89% 0.00in /  0mm 0 W/m2
05:39 55.5 °F /  13.1 °C 52.3 °F /  11.3 °C 29.97in /  1014.8hPa Calm     89% 0.00in /  0mm 0 W/m2
05:44 55.5 °F /  13.1 °C 52.4 °F /  11.3 °C 29.97in /  1014.8hPa Calm     89.4% 0.00in /  0mm 0 W/m2
05:49 55.5 °F /  13.1 °C 52.6 °F /  11.4 °C 29.97in /  1014.8hPa Calm     90% 0.00in /  0mm 0 W/m2
05:54 55.5 °F /  13.1 °C 52.6 °F /  11.4 °C 29.97in /  1014.8hPa Calm     90% 0.00in /  0mm 0 W/m2
05:59 55.5 °F /  13.1 °C 52.6 °F /  11.4 °C 29.97in /  1014.8hPa Calm     90% 0.00in /  0mm 0 W/m2
06:04 55.5 °F /  13.1 °C 52.6 °F /  11.4 °C 29.96in /  1014.4hPa Calm     90% 0.00in /  0mm 0 W/m2
06:09 55.5 °F /  13.1 °C 52.6 °F /  11.4 °C 29.96in /  1014.4hPa Calm     90% 0.00in /  0mm 0 W/m2
06:14 55.5 °F /  13.1 °C 52.6 °F /  11.4 °C 29.96in /  1014.4hPa Calm     90% 0.00in /  0mm 0 W/m2
06:19 55.4 °F /  13 °C 52.5 °F /  11.4 °C 29.96in /  1014.4hPa Calm     90% 0.00in /  0mm 0 W/m2
06:24 55.3 °F /  12.9 °C 52.4 °F /  11.3 °C 29.96in /  1014.4hPa Calm     90% 0.00in /  0mm 0 W/m2
06:29 55.2 °F /  12.9 °C 52.3 °F /  11.3 °C 29.96in /  1014.4hPa Calm     90% 0.00in /  0mm 0 W/m2
06:34 55.1 °F /  12.8 °C 52.2 °F /  11.2 °C 29.96in /  1014.4hPa Calm     90% 0.00in /  0mm 0 W/m2
06:39 55.1 °F /  12.8 °C 52.2 °F /  11.2 °C 29.96in /  1014.4hPa Calm     90% 0.00in /  0mm 0 W/m2
06:44 55 °F /  12.8 °C 52.1 °F /  11.2 °C 29.96in /  1014.4hPa Calm     90% 0.00in /  0mm 0 W/m2
06:49 54.9 °F /  12.7 °C 52 °F /  11.1 °C 29.96in /  1014.4hPa Calm     90% 0.00in /  0mm 0 W/m2
06:54 54.8 °F /  12.7 °C 51.9 °F /  11.1 °C 29.96in /  1014.4hPa Calm     90% 0.00in /  0mm 0 W/m2
06:59 54.7 °F /  12.6 °C 51.8 °F /  11 °C 29.96in /  1014.4hPa Calm     90% 0.00in /  0mm 0 W/m2
07:04 54.6 °F /  12.6 °C 51.7 °F /  10.9 °C 29.96in /  1014.4hPa Calm     90% 0.00in /  0mm 0 W/m2
07:09 54.6 °F /  12.6 °C 52 °F /  11.1 °C 29.96in /  1014.4hPa Calm     91% 0.00in /  0mm 0 W/m2
07:14 54.6 °F /  12.6 °C 52 °F /  11.1 °C 29.97in /  1014.8hPa Calm     91% 0.00in /  0mm 5 W/m2
07:19 54.5 °F /  12.5 °C 52 °F /  11.1 °C 29.97in /  1014.8hPa Calm     91% 0.00in /  0mm 9 W/m2
07:24 54.5 °F /  12.5 °C 51.9 °F /  11.1 °C 29.97in /  1014.8hPa Calm     91% 0.00in /  0mm 12 W/m2
07:29 54.4 °F /  12.4 °C 51.9 °F /  11.1 °C 29.97in /  1014.8hPa Calm     91% 0.00in /  0mm 18 W/m2
07:34 54.4 °F /  12.4 °C 51.8 °F /  11 °C 29.98in /  1015.1hPa Calm     91% 0.00in /  0mm 21 W/m2
07:39 54.4 °F /  12.4 °C 51.8 °F /  11 °C 29.98in /  1015.1hPa Calm     91% 0.00in /  0mm 28 W/m2
07:44 54.4 °F /  12.4 °C 51.8 °F /  11 °C 29.98in /  1015.1hPa Calm     91% 0.00in /  0mm 33 W/m2
07:49 54.4 °F /  12.4 °C 51.8 °F /  11 °C 29.98in /  1015.1hPa Calm     91% 0.00in /  0mm 40 W/m2
07:54 54.5 °F /  12.5 °C 52.2 °F /  11.2 °C 29.98in /  1015.1hPa Calm     91.7% 0.00in /  0mm 47 W/m2
07:59 54.7 °F /  12.6 °C 52.4 °F /  11.3 °C 29.99in /  1015.5hPa Calm     92% 0.00in /  0mm 49 W/m2
08:00 54.8 °F /  12.7 °C 52.5 °F /  11.4 °C 29.98in /  1015.1hPa Calm     92% 0.00in /  0mm 49 W/m2
08:09 55.3 °F /  12.9 °C 53 °F /  11.7 °C 29.99in /  1015.5hPa Calm     92% 0.00in /  0mm 60 W/m2
08:14 55.5 °F /  13.1 °C 53.2 °F /  11.8 °C 29.99in /  1015.5hPa Calm     92% 0.00in /  0mm 69 W/m2
08:19 55.8 °F /  13.2 °C 53.5 °F /  11.9 °C 29.99in /  1015.5hPa Calm     91.8% 0.00in /  0mm 67 W/m2
08:24 56.2 °F /  13.4 °C 53.6 °F /  12 °C 29.99in /  1015.5hPa Calm     91.2% 0.00in /  0mm 67 W/m2
08:29 56.6 °F /  13.7 °C 53.9 °F /  12.2 °C 29.99in /  1015.5hPa Calm     90.8% 0.00in /  0mm 74 W/m2
08:34 57 °F /  13.9 °C 54.1 °F /  12.3 °C 29.99in /  1015.5hPa Calm     90% 0.00in /  0mm 95 W/m2
08:39 57.4 °F /  14.1 °C 54.3 °F /  12.4 °C 29.99in /  1015.5hPa Calm     89.4% 0.00in /  0mm 95 W/m2
08:44 57.7 °F /  14.3 °C 54.5 °F /  12.5 °C 29.99in /  1015.5hPa Calm     88.9% 0.00in /  0mm 102 W/m2
08:49 58.2 °F /  14.6 °C 54.7 °F /  12.6 °C 29.98in /  1015.1hPa Calm     88% 0.00in /  0mm 218 W/m2
08:54 58.8 °F /  14.9 °C 55.2 °F /  12.9 °C 29.98in /  1015.1hPa Calm     87.9% 0.00in /  0mm 227 W/m2
08:59 59.5 °F /  15.3 °C 55.5 °F /  13.1 °C 29.98in /  1015.1hPa Calm     86.8% 0.00in /  0mm 206 W/m2
09:04 60.2 °F /  15.7 °C 55.7 °F /  13.2 °C 29.98in /  1015.1hPa Calm     85.1% 0.00in /  0mm 279 W/m2
09:09 61.1 °F /  16.2 °C 56 °F /  13.3 °C 29.98in /  1015.1hPa Calm     83.5% 0.00in /  0mm 313 W/m2
09:14 62.2 °F /  16.8 °C 56.4 °F /  13.6 °C 29.98in /  1015.1hPa Calm     81.5% 0.00in /  0mm 343 W/m2
09:19 63.3 °F /  17.4 °C 56.9 °F /  13.8 °C 29.98in /  1015.1hPa Calm     79.6% 0.00in /  0mm 334 W/m2
09:24 64.4 °F /  18 °C 57 °F /  13.9 °C 29.98in /  1015.1hPa Calm     77% 0.00in /  0mm 348 W/m2
09:29 65.4 °F /  18.6 °C 57.6 °F /  14.2 °C 29.98in /  1015.1hPa Calm     76% 0.00in /  0mm 350 W/m2
09:34 66.2 °F /  19 °C 57.6 °F /  14.2 °C 29.98in /  1015.1hPa Calm     73.9% 0.00in /  0mm 392 W/m2
09:39 66.8 °F /  19.3 °C 57.5 °F /  14.2 °C 29.98in /  1015.1hPa Calm     72% 0.00in /  0mm 401 W/m2
09:44 67.3 °F /  19.6 °C 57.7 °F /  14.3 °C 29.98in /  1015.1hPa Calm     71.4% 0.00in /  0mm 401 W/m2
09:49 67.8 °F /  19.9 °C 57.9 °F /  14.4 °C 29.97in /  1014.8hPa Calm     70.7% 0.00in /  0mm 427 W/m2
09:54 68.3 °F /  20.2 °C 57.9 °F /  14.4 °C 29.97in /  1014.8hPa Calm     69.3% 0.00in /  0mm 427 W/m2
09:59 68.9 °F /  20.5 °C 58.3 °F /  14.6 °C 29.97in /  1014.8hPa Calm     68.9% 0.00in /  0mm 431 W/m2
10:04 69.5 °F /  20.8 °C 58 °F /  14.4 °C 29.97in /  1014.8hPa Calm     66.9% 0.00in /  0mm 432 W/m2
10:09 70 °F /  21.1 °C 58.1 °F /  14.5 °C 29.97in /  1014.8hPa Calm     65.9% 0.00in /  0mm 492 W/m2
10:14 70.4 °F /  21.3 °C 57.8 °F /  14.3 °C 29.97in /  1014.8hPa Calm     64.3% 0.00in /  0mm 504 W/m2
10:19 70.9 °F /  21.6 °C 58.1 °F /  14.5 °C 29.97in /  1014.8hPa Calm     64% 0.00in /  0mm 570 W/m2
10:24 71.4 °F /  21.9 °C 58.4 °F /  14.7 °C 29.97in /  1014.8hPa Calm     63.4% 0.00in /  0mm 598 W/m2
10:29 72 °F /  22.2 °C 58.6 °F /  14.8 °C 29.97in /  1014.8hPa Calm     62.9% 0.00in /  0mm 568 W/m2
10:34 72.4 °F /  22.4 °C 58.6 °F /  14.8 °C 29.97in /  1014.8hPa Calm     61.9% 0.00in /  0mm 598 W/m2
10:39 72.9 °F /  22.7 °C 58 °F /  14.4 °C 29.97in /  1014.8hPa Calm     59.5% 0.00in /  0mm 548 W/m2
10:44 73.3 °F /  22.9 °C 58 °F /  14.4 °C 29.97in /  1014.8hPa Calm     58.7% 0.00in /  0mm 647 W/m2
10:49 73.8 °F /  23.2 °C 58.1 °F /  14.5 °C 29.97in /  1014.8hPa Calm   1mph /  1.6km/h 58% 0.00in /  0mm 708 W/m2
10:54 74.1 °F /  23.4 °C 57.5 °F /  14.2 °C 29.96in /  1014.4hPa West 0.1mph /  0.2km/h 2mph /  3.2km/h 56.3% 0.00in /  0mm 708 W/m2
10:59 73.9 °F /  23.3 °C 57.2 °F /  14 °C 29.96in /  1014.4hPa Calm   2mph /  3.2km/h 56% 0.00in /  0mm 689 W/m2
11:04 73.3 °F /  22.9 °C 57 °F /  13.9 °C 29.96in /  1014.4hPa West 0.1mph /  0.2km/h 3mph /  4.8km/h 56.6% 0.00in /  0mm 250 W/m2
11:09 72.5 °F /  22.5 °C 56.8 °F /  13.8 °C 29.95in /  1014.1hPa Calm   3mph /  4.8km/h 57.9% 0.00in /  0mm 243 W/m2
11:14 71.7 °F /  22.1 °C 56.8 °F /  13.8 °C 29.95in /  1014.1hPa Calm   3mph /  4.8km/h 59.3% 0.00in /  0mm 279 W/m2
11:19 71.5 °F /  21.9 °C 57.4 °F /  14.1 °C 29.95in /  1014.1hPa WSW 0.1mph /  0.2km/h 3mph /  4.8km/h 61.2% 0.00in /  0mm 290 W/m2
11:24 71.9 °F /  22.2 °C 57.7 °F /  14.3 °C 29.95in /  1014.1hPa WSW 0.1mph /  0.2km/h 3mph /  4.8km/h 61% 0.00in /  0mm 338 W/m2
11:29 72.6 °F /  22.6 °C 57.9 °F /  14.4 °C 29.95in /  1014.1hPa Calm   3mph /  4.8km/h 60% 0.00in /  0mm 278 W/m2
11:34 73.1 °F /  22.8 °C 57.9 °F /  14.4 °C 29.94in /  1013.8hPa Calm   3mph /  4.8km/h 58.8% 0.00in /  0mm 445 W/m2
11:39 73.7 °F /  23.2 °C 57.9 °F /  14.4 °C 29.94in /  1013.8hPa SW 0.4mph /  0.6km/h 4mph /  6.4km/h 57.9% 0.00in /  0mm 445 W/m2
11:44 74.1 °F /  23.4 °C 57.8 °F /  14.3 °C 29.94in /  1013.8hPa South 0.3mph /  0.5km/h 4mph /  6.4km/h 56.8% 0.00in /  0mm 580 W/m2
11:49 74.4 °F /  23.6 °C 57.3 °F /  14.1 °C 29.94in /  1013.8hPa South 0.3mph /  0.5km/h 4mph /  6.4km/h 55.2% 0.00in /  0mm 610 W/m2
11:54 74.5 °F /  23.6 °C 57.3 °F /  14.1 °C 29.94in /  1013.8hPa Calm   4mph /  6.4km/h 55% 0.00in /  0mm 613 W/m2
11:59 74.5 °F /  23.6 °C 57.6 °F /  14.2 °C 29.94in /  1013.8hPa South 0.1mph /  0.2km/h 4mph /  6.4km/h 55.5% 0.00in /  0mm 598 W/m2
12:00 74.6 °F /  23.7 °C 56.9 °F /  13.8 °C 29.94in /  1013.8hPa Calm   4mph /  6.4km/h 54% 0.00in /  0mm 545 W/m2
12:09 75.1 °F /  23.9 °C 58.1 °F /  14.5 °C 29.94in /  1013.8hPa Calm   1mph /  1.6km/h 55.4% 0.00in /  0mm 599 W/m2
12:14 75.5 °F /  24.2 °C 57.3 °F /  14.1 °C 29.94in /  1013.8hPa SSW 0.1mph /  0.2km/h 1mph /  1.6km/h 53.3% 0.00in /  0mm 301 W/m2
12:19 75.7 °F /  24.3 °C 57.2 °F /  14 °C 29.94in /  1013.8hPa Calm   1mph /  1.6km/h 52.8% 0.00in /  0mm 301 W/m2
12:24 75.7 °F /  24.3 °C 56.9 °F /  13.8 °C 29.94in /  1013.8hPa SSW 0.1mph /  0.2km/h 2mph /  3.2km/h 52.1% 0.00in /  0mm 272 W/m2
12:29 75.4 °F /  24.1 °C 57.4 °F /  14.1 °C 29.94in /  1013.8hPa SW 0.3mph /  0.5km/h 3mph /  4.8km/h 53.4% 0.00in /  0mm 341 W/m2
12:34 75.3 °F /  24.1 °C 57.5 °F /  14.2 °C 29.94in /  1013.8hPa South 0.9mph /  1.4km/h 6mph /  9.7km/h 54% 0.00in /  0mm 322 W/m2
12:39 75.2 °F /  24 °C 57.3 °F /  14.1 °C 29.94in /  1013.8hPa SSW 0.4mph /  0.6km/h 6mph /  9.7km/h 53.9% 0.00in /  0mm 592 W/m2
12:44 75.1 °F /  23.9 °C 57.1 °F /  13.9 °C 29.93in /  1013.4hPa WSW 0.9mph /  1.4km/h 6mph /  9.7km/h 53.4% 0.00in /  0mm 355 W/m2
12:49 75.2 °F /  24 °C 57.1 °F /  13.9 °C 29.93in /  1013.4hPa WSW 0.1mph /  0.2km/h 6mph /  9.7km/h 53.3% 0.00in /  0mm 156 W/m2
12:54 75.3 °F /  24.1 °C 56.3 °F /  13.5 °C 29.92in /  1013.1hPa SW 0.9mph /  1.4km/h 6mph /  9.7km/h 51.7% 0.00in /  0mm 74 W/m2
12:59 75.2 °F /  24 °C 55.3 °F /  12.9 °C 29.92in /  1013.1hPa SW 2.7mph /  4.3km/h 9mph /  14.5km/h 49.9% 0.00in /  0mm 137 W/m2
13:04 75.1 °F /  23.9 °C 55.4 °F /  13 °C 29.92in /  1013.1hPa WSW 1.4mph /  2.3km/h 9mph /  14.5km/h 50.4% 0.00in /  0mm 232 W/m2
13:09 75.2 °F /  24 °C 56.6 °F /  13.7 °C 29.92in /  1013.1hPa WSW 1mph /  1.6km/h 7mph /  11.3km/h 52.3% 0.00in /  0mm 455 W/m2
13:14 75.4 °F /  24.1 °C 56.4 °F /  13.6 °C 29.91in /  1012.8hPa SW 1.7mph /  2.7km/h 7mph /  11.3km/h 51.8% 0.00in /  0mm 555 W/m2
13:19 75.5 °F /  24.2 °C 56.7 °F /  13.7 °C 29.91in /  1012.8hPa SW 0.8mph /  1.3km/h 7mph /  11.3km/h 52.1% 0.00in /  0mm 408 W/m2
13:24 75.5 °F /  24.2 °C 56.6 °F /  13.7 °C 29.91in /  1012.8hPa SW 0.7mph /  1.1km/h 7mph /  11.3km/h 52% 0.00in /  0mm 199 W/m2
13:29 75.5 °F /  24.2 °C 57.1 °F /  13.9 °C 29.90in /  1012.4hPa SW 1.6mph /  2.6km/h 7mph /  11.3km/h 52.7% 0.00in /  0mm 169 W/m2
13:34 75.5 °F /  24.2 °C 56.7 °F /  13.7 °C 29.90in /  1012.4hPa SW 0.6mph /  1km/h 7mph /  11.3km/h 52.2% 0.00in /  0mm 153 W/m2
13:39 75.3 °F /  24.1 °C 56.2 °F /  13.4 °C 29.90in /  1012.4hPa SSW 2.5mph /  4km/h 9mph /  14.5km/h 51.5% 0.00in /  0mm 606 W/m2
13:44 75.3 °F /  24.1 °C 56.1 °F /  13.4 °C 29.90in /  1012.4hPa WSW 1.7mph /  2.7km/h 9mph /  14.5km/h 51.3% 0.00in /  0mm 606 W/m2
13:49 75.5 °F /  24.2 °C 56 °F /  13.3 °C 29.90in /  1012.4hPa SW 1.2mph /  1.9km/h 9mph /  14.5km/h 50.8% 0.00in /  0mm 297 W/m2
13:54 75.4 °F /  24.1 °C 55.6 °F /  13.1 °C 29.90in /  1012.4hPa SW 2.9mph /  4.7km/h 12mph /  19.3km/h 50% 0.00in /  0mm 390 W/m2
13:59 75.4 °F /  24.1 °C 56.3 °F /  13.5 °C 29.90in /  1012.4hPa WSW 0.6mph /  1km/h 12mph /  19.3km/h 51.5% 0.00in /  0mm 132 W/m2
14:04 75.3 °F /  24.1 °C 55.9 °F /  13.3 °C 29.90in /  1012.4hPa WSW 1.8mph /  2.9km/h 12mph /  19.3km/h 50.9% 0.00in /  0mm 132 W/m2
14:09 75.3 °F /  24.1 °C 55.8 °F /  13.2 °C 29.89in /  1012.1hPa WSW 1.5mph /  2.4km/h 10mph /  16.1km/h 50.6% 0.00in /  0mm 243 W/m2
14:14 75.4 °F /  24.1 °C 55.8 °F /  13.2 °C 29.89in /  1012.1hPa SW 1.1mph /  1.8km/h 10mph /  16.1km/h 50.5% 0.00in /  0mm 127 W/m2
14:19 75.5 °F /  24.2 °C 55.6 °F /  13.1 °C 29.89in /  1012.1hPa West 0.7mph /  1.1km/h 10mph /  16.1km/h 50% 0.00in /  0mm 186 W/m2
14:24 75.7 °F /  24.3 °C 56 °F /  13.3 °C 29.89in /  1012.1hPa SW 2.9mph /  4.7km/h 11mph /  17.7km/h 50.4% 0.00in /  0mm 380 W/m2
14:29 75.9 °F /  24.4 °C 55.2 °F /  12.9 °C 29.89in /  1012.1hPa SW 0.9mph /  1.4km/h 11mph /  17.7km/h 48.7% 0.00in /  0mm 237 W/m2
14:34 76 °F /  24.4 °C 55.6 °F /  13.1 °C 29.88in /  1011.7hPa SSW 0.5mph /  0.8km/h 11mph /  17.7km/h 49.3% 0.00in /  0mm 130 W/m2
14:39 76 °F /  24.4 °C 55.3 °F /  12.9 °C 29.88in /  1011.7hPa SW 0.4mph /  0.6km/h 4mph /  6.4km/h 48.8% 0.00in /  0mm 151 W/m2
14:44 76.1 °F /  24.5 °C 56 °F /  13.3 °C 29.88in /  1011.7hPa SW 0.4mph /  0.6km/h 4mph /  6.4km/h 49.8% 0.00in /  0mm 216 W/m2
14:49 76.3 °F /  24.6 °C 55.6 °F /  13.1 °C 29.87in /  1011.4hPa SW 0.4mph /  0.6km/h 4mph /  6.4km/h 48.8% 0.00in /  0mm 146 W/m2
14:54 76.3 °F /  24.6 °C 55.3 °F /  12.9 °C 29.87in /  1011.4hPa SW 0.9mph /  1.4km/h 5mph /  8km/h 48.3% 0.00in /  0mm 241 W/m2
14:59 76.2 °F /  24.6 °C 55.7 °F /  13.2 °C 29.87in /  1011.4hPa WSW 0.1mph /  0.2km/h 5mph /  8km/h 49% 0.00in /  0mm 135 W/m2
15:04 76.3 °F /  24.6 °C 55.5 °F /  13.1 °C 29.87in /  1011.4hPa SW 0.7mph /  1.1km/h 6mph /  9.7km/h 48.7% 0.00in /  0mm 163 W/m2
15:09 76.3 °F /  24.6 °C 55.2 °F /  12.9 °C 29.87in /  1011.4hPa SSW 0.6mph /  1km/h 6mph /  9.7km/h 48.1% 0.00in /  0mm 149 W/m2
15:14 76.2 °F /  24.6 °C 54.6 °F /  12.6 °C 29.87in /  1011.4hPa South 0.7mph /  1.1km/h 6mph /  9.7km/h 47.2% 0.00in /  0mm 248 W/m2
15:19 76.1 °F /  24.5 °C 54.7 °F /  12.6 °C 29.86in /  1011.1hPa South 0.3mph /  0.5km/h 6mph /  9.7km/h 47.4% 0.00in /  0mm 221 W/m2
15:24 76.1 °F /  24.5 °C 54.7 °F /  12.6 °C 29.86in /  1011.1hPa SSW 0.6mph /  1km/h 6mph /  9.7km/h 47.5% 0.00in /  0mm 355 W/m2
15:29 75.9 °F /  24.4 °C 54.5 °F /  12.5 °C 29.86in /  1011.1hPa SSW 1.2mph /  1.9km/h 6mph /  9.7km/h 47.5% 0.00in /  0mm 223 W/m2
15:34 75.6 °F /  24.2 °C 54.3 °F /  12.4 °C 29.86in /  1011.1hPa SW 0.8mph /  1.3km/h 6mph /  9.7km/h 47.5% 0.00in /  0mm 123 W/m2
15:39 75.2 °F /  24 °C 54.6 °F /  12.6 °C 29.86in /  1011.1hPa WSW 0.7mph /  1.1km/h 7mph /  11.3km/h 48.8% 0.00in /  0mm 109 W/m2
15:44 74.8 °F /  23.8 °C 54.5 °F /  12.5 °C 29.86in /  1011.1hPa Calm   7mph /  11.3km/h 49.2% 0.00in /  0mm 118 W/m2
15:49 74.5 °F /  23.6 °C 54.1 °F /  12.3 °C 29.86in /  1011.1hPa WSW 0.1mph /  0.2km/h 7mph /  11.3km/h 49% 0.00in /  0mm 134 W/m2
15:54 74.2 °F /  23.4 °C 53.8 °F /  12.1 °C 29.86in /  1011.1hPa Calm   7mph /  11.3km/h 49% 0.00in /  0mm 139 W/m2
15:59 74 °F /  23.3 °C 54.2 °F /  12.3 °C 29.86in /  1011.1hPa SW 0.1mph /  0.2km/h 7mph /  11.3km/h 50% 0.00in /  0mm 137 W/m2
16:00 73.9 °F /  23.3 °C 54.1 °F /  12.3 °C 29.85in /  1010.7hPa Calm   7mph /  11.3km/h 50% 0.00in /  0mm 86 W/m2
16:09 73.6 °F /  23.1 °C 54 °F /  12.2 °C 29.85in /  1010.7hPa SSW 0.3mph /  0.5km/h 3mph /  4.8km/h 50.3% 0.00in /  0mm 114 W/m2
16:14 73.4 °F /  23 °C 53.7 °F /  12.1 °C 29.85in /  1010.7hPa SSW 0.2mph /  0.3km/h 3mph /  4.8km/h 50% 0.00in /  0mm 123 W/m2
16:19 73.3 °F /  22.9 °C 54.3 °F /  12.4 °C 29.85in /  1010.7hPa SSW 0.7mph /  1.1km/h 6mph /  9.7km/h 51.3% 0.00in /  0mm 120 W/m2
16:24 73.3 °F /  22.9 °C 53.9 °F /  12.2 °C 29.85in /  1010.7hPa South 1.1mph /  1.8km/h 6mph /  9.7km/h 50.6% 0.00in /  0mm 100 W/m2
16:29 73.1 °F /  22.8 °C 53.9 °F /  12.2 °C 29.85in /  1010.7hPa South 0.9mph /  1.4km/h 6mph /  9.7km/h 51% 0.00in /  0mm 77 W/m2
16:34 73 °F /  22.8 °C 53.9 °F /  12.2 °C 29.84in /  1010.4hPa South 0.3mph /  0.5km/h 6mph /  9.7km/h 51.1% 0.00in /  0mm 93 W/m2
16:39 72.9 °F /  22.7 °C 54.3 °F /  12.4 °C 29.85in /  1010.7hPa South 0.4mph /  0.6km/h 3mph /  4.8km/h 52.1% 0.00in /  0mm 91 W/m2
16:44 72.8 °F /  22.7 °C 53.9 °F /  12.2 °C 29.85in /  1010.7hPa South 0.4mph /  0.6km/h 4mph /  6.4km/h 51.4% 0.00in /  0mm 72 W/m2
16:49 72.8 °F /  22.7 °C 54.1 °F /  12.3 °C 29.84in /  1010.4hPa South 0.7mph /  1.1km/h 4mph /  6.4km/h 52% 0.00in /  0mm 53 W/m2
16:54 72.6 °F /  22.6 °C 54.4 °F /  12.4 °C 29.84in /  1010.4hPa South 1mph /  1.6km/h 4mph /  6.4km/h 52.7% 0.00in /  0mm 47 W/m2
16:59 72.4 °F /  22.4 °C 54.5 °F /  12.5 °C 29.84in /  1010.4hPa South 1.1mph /  1.8km/h 7mph /  11.3km/h 53.4% 0.00in /  0mm 44 W/m2
17:04 72 °F /  22.2 °C 54.3 °F /  12.4 °C 29.84in /  1010.4hPa SSE 0.7mph /  1.1km/h 7mph /  11.3km/h 53.7% 0.00in /  0mm 23 W/m2
17:09 71.6 °F /  22 °C 54.1 °F /  12.3 °C 29.84in /  1010.4hPa South 1.3mph /  2.1km/h 5mph /  8km/h 54% 0.00in /  0mm 23 W/m2
17:14 71.2 °F /  21.8 °C 54.4 °F /  12.4 °C 29.84in /  1010.4hPa SSW 0.4mph /  0.6km/h 5mph /  8km/h 55.5% 0.00in /  0mm 23 W/m2
17:19 70.9 °F /  21.6 °C 54.7 °F /  12.6 °C 29.84in /  1010.4hPa South 0.1mph /  0.2km/h 5mph /  8km/h 56.6% 0.00in /  0mm 28 W/m2
17:24 70.7 °F /  21.5 °C 54.7 °F /  12.6 °C 29.84in /  1010.4hPa South 1mph /  1.6km/h 7mph /  11.3km/h 57% 0.00in /  0mm 28 W/m2
17:29 70.5 °F /  21.4 °C 54.8 °F /  12.7 °C 29.84in /  1010.4hPa South 0.4mph /  0.6km/h 7mph /  11.3km/h 57.6% 0.00in /  0mm 25 W/m2
17:34 70.3 °F /  21.3 °C 55.1 °F /  12.8 °C 29.84in /  1010.4hPa South 0.5mph /  0.8km/h 7mph /  11.3km/h 58.6% 0.00in /  0mm 23 W/m2
17:39 70.2 °F /  21.2 °C 55.2 °F /  12.9 °C 29.84in /  1010.4hPa South 0.1mph /  0.2km/h 4mph /  6.4km/h 59% 0.00in /  0mm 19 W/m2
17:43 70 °F /  21.1 °C 55 °F /  12.8 °C 29.84in /  1010.4hPa South 0.6mph /  1km/h 5mph /  8km/h 59% 0.00in /  0mm 14 W/m2
Hartford County Weather
Compliments of Weather Underground - 2 mb